Time;durP1;ratioP1;P1;durP2;ratioP2;P2;SDS_P1;SDS_P2;PMS_P1;PMS_P2;Temp;Humidity;BMP_temperature;BMP_pressure;BME280_temperature;BME280_humidity;BME280_pressure;Samples;Min_cycle;Max_cycle;Signal;HPM_P1;HPM_P2
2023/01/28 00:01:52;;;;;;;;;;;3.40;99.90;;;;;;5008601;28;19914;-66
2023/01/28 00:04:18;;;;;;;;;;;3.30;99.90;;;;;;5008160;28;19942;-66
2023/01/28 00:06:43;;;;;;;;;;;3.40;99.90;;;;;;5008091;28;19957;-66
2023/01/28 00:09:09;;;;;;;;;;;3.30;99.90;;;;;;5008154;28;19948;-66
2023/01/28 00:11:34;;;;;;;;;;;3.30;99.90;;;;;;5007751;28;19929;-66
2023/01/28 00:14:00;;;;;;;;;;;3.30;99.90;;;;;;5008521;28;19914;-66
2023/01/28 00:16:26;;;;;;;;;;;3.30;99.90;;;;;;5008315;28;19922;-66
2023/01/28 00:18:52;;;;;;;;;;;3.30;99.90;;;;;;5007964;28;20049;-66
2023/01/28 00:21:18;;;;;;;;;;;3.30;99.90;;;;;;5004726;28;19921;-66
2023/01/28 00:23:46;;;;;;;;;;;3.30;99.90;;;;;;5007293;28;19914;-66
2023/01/28 00:26:13;;;;;;;;;;;3.30;99.90;;;;;;5007779;28;19913;-66
2023/01/28 00:28:38;;;;;;;;;;;3.30;99.90;;;;;;4990289;28;20283;-66
2023/01/28 00:31:08;;;;;;;;;;;3.30;99.90;;;;;;5007939;28;19920;-66
2023/01/28 00:33:34;;;;;;;;;;;3.30;99.90;;;;;;5007924;28;19913;-66
2023/01/28 00:36:00;;;;;;;;;;;3.30;99.90;;;;;;5008024;28;20869;-66
2023/01/28 00:38:26;;;;;;;;;;;3.30;99.90;;;;;;5007929;28;20032;-66
2023/01/28 00:40:52;;;;;;;;;;;3.30;99.90;;;;;;5005431;28;20036;-67
2023/01/28 00:43:17;;;;;;;;;;;3.30;99.90;;;;;;5007588;28;20016;-66
2023/01/28 00:45:43;;;;;;;;;;;3.30;99.90;;;;;;5007900;28;19913;-66
2023/01/28 00:48:08;;;;;;;;;;;3.30;99.90;;;;;;5008060;28;20119;-66
2023/01/28 00:50:34;;;;;;;;;;;3.30;99.90;;;;;;5007329;28;19921;-66
2023/01/28 00:53:00;;;;;;;;;;;3.30;99.90;;;;;;5007859;28;19989;-66
2023/01/28 00:55:27;;;;;;;;;;;3.30;99.90;;;;;;5007423;28;19994;-66
2023/01/28 00:57:52;;;;;;;;;;;3.30;99.90;;;;;;5006850;28;20607;-66
2023/01/28 01:00:20;;;;;;;;;;;3.30;99.90;;;;;;5007280;28;19921;-66
2023/01/28 01:02:46;;;;;;;;;;;3.30;99.90;;;;;;5007131;28;19909;-66
2023/01/28 01:05:11;;;;;;;;;;;3.30;99.90;;;;;;5007665;28;19916;-66
2023/01/28 01:07:43;;;;;;;;;;;3.30;99.90;;;;;;5007734;28;20345;-66
2023/01/28 01:10:08;;;;;;;;;;;3.30;99.90;;;;;;5007489;28;19913;-66
2023/01/28 01:12:34;;;;;;;;;;;3.30;99.90;;;;;;5007681;28;20359;-67
2023/01/28 01:14:59;;;;;;;;;;;3.20;99.90;;;;;;5007284;28;19913;-66
2023/01/28 01:17:25;;;;;;;;;;;3.30;99.90;;;;;;5005895;28;20003;-66
2023/01/28 01:19:50;;;;;;;;;;;3.20;99.90;;;;;;5006861;28;19920;-66
2023/01/28 01:22:16;;;;;;;;;;;3.20;99.90;;;;;;5006706;28;20358;-66
2023/01/28 01:24:41;;;;;;;;;;;3.20;99.90;;;;;;5006636;28;19909;-66
2023/01/28 01:27:07;;;;;;;;;;;3.20;99.90;;;;;;5006769;28;20473;-66
2023/01/28 01:29:35;;;;;;;;;;;3.20;99.90;;;;;;5007119;28;19920;-66
2023/01/28 01:32:01;;;;;;;;;;;3.20;99.90;;;;;;5006975;28;20573;-66
2023/01/28 01:34:26;;;;;;;;;;;3.20;99.90;;;;;;5007094;28;19910;-66
2023/01/28 01:36:51;;;;;;;;;;;3.20;99.90;;;;;;5006776;28;19909;-66
2023/01/28 01:39:17;;;;;;;;;;;3.20;99.90;;;;;;5006376;28;19971;-66
2023/01/28 01:41:43;;;;;;;;;;;3.20;99.90;;;;;;5002166;28;19913;-66
2023/01/28 01:44:27;;;;;;;;;;;3.20;99.90;;;;;;5006613;28;19998;-66
2023/01/28 01:46:53;;;;;;;;;;;3.20;99.90;;;;;;5006965;28;20482;-66
2023/01/28 01:49:22;;;;;;;;;;;3.20;99.90;;;;;;5006783;28;19910;-66
2023/01/28 01:51:51;;;;;;;;;;;3.20;99.90;;;;;;5006900;28;19918;-66
2023/01/28 01:54:18;;;;;;;;;;;3.20;99.90;;;;;;5007007;28;19913;-66
2023/01/28 01:56:45;;;;;;;;;;;3.20;99.90;;;;;;5005747;28;20286;-66
2023/01/28 01:59:12;;;;;;;;;;;3.20;99.90;;;;;;5006933;28;19918;-66
2023/01/28 02:01:38;;;;;;;;;;;3.20;99.90;;;;;;5006623;28;19988;-66
2023/01/28 02:04:30;;;;;;;;;;;3.20;99.90;;;;;;5007097;28;20037;-66
2023/01/28 02:06:57;;;;;;;;;;;3.10;99.90;;;;;;5003532;28;19996;-66
2023/01/28 02:09:28;;;;;;;;;;;3.20;99.90;;;;;;5006773;28;19968;-66
2023/01/28 02:11:58;;;;;;;;;;;3.20;99.90;;;;;;5006659;28;19959;-66
2023/01/28 02:14:25;;;;;;;;;;;3.20;99.90;;;;;;5006305;28;20658;-66
2023/01/28 02:16:51;;;;;;;;;;;3.20;99.90;;;;;;5001285;28;19997;-66
2023/01/28 02:19:18;;;;;;;;;;;3.10;99.90;;;;;;5003008;28;19921;-66
2023/01/28 02:22:02;;;;;;;;;;;3.10;99.90;;;;;;5006869;28;19917;-66
2023/01/28 02:24:39;;;;;;;;;;;3.10;99.90;;;;;;5006776;28;19920;-66
2023/01/28 02:27:14;;;;;;;;;;;3.10;99.90;;;;;;5006642;28;19952;-66
2023/01/28 02:29:49;;;;;;;;;;;3.10;99.90;;;;;;5005908;28;19914;-66
2023/01/28 02:32:25;;;;;;;;;;;3.10;99.90;;;;;;5011301;28;19920;-66
2023/01/28 02:34:55;;;;;;;;;;;3.10;99.90;;;;;;5007341;28;20538;-66
2023/01/28 02:37:23;;;;;;;;;;;3.10;99.90;;;;;;5010031;28;20282;-66
2023/01/28 02:39:56;;;;;;;;;;;3.10;99.90;;;;;;5010338;28;19967;-66
2023/01/28 02:42:29;;;;;;;;;;;3.10;99.90;;;;;;5005112;28;19968;-67
2023/01/28 02:44:55;;;;;;;;;;;3.10;99.90;;;;;;5010086;28;19913;-66
2023/01/28 02:50:07;;;;;;;;;;;3.10;99.90;;;;;;5010124;28;20013;-66
2023/01/28 02:55:29;;;;;;;;;;;3.00;99.90;;;;;;5003993;28;19921;-66
2023/01/28 02:57:59;;;;;;;;;;;3.10;99.90;;;;;;4999643;28;20625;-66
2023/01/28 03:00:26;;;;;;;;;;;3.00;99.90;;;;;;5007359;28;20434;-66
2023/01/28 03:03:01;;;;;;;;;;;3.00;99.90;;;;;;5009501;28;19909;-66
2023/01/28 03:05:37;;;;;;;;;;;3.00;99.90;;;;;;5009614;28;19909;-66
2023/01/28 03:09:21;;;;;;;;;;;3.00;99.90;;;;;;5009531;28;19920;-66
2023/01/28 03:38:42;;;;;;;;;;;3.00;99.90;;;;;;5009025;28;19920;-66
2023/01/28 03:41:09;;;;;;;;;;;3.00;99.90;;;;;;5005149;28;19921;-66
2023/01/28 03:43:35;;;;;;;;;;;3.00;99.90;;;;;;5007688;28;20000;-66
2023/01/28 03:46:01;;;;;;;;;;;2.90;99.90;;;;;;5008947;28;20441;-66
2023/01/28 03:48:27;;;;;;;;;;;3.00;99.90;;;;;;5008365;28;20359;-66
2023/01/28 03:50:54;;;;;;;;;;;2.90;99.90;;;;;;5008769;28;19980;-66
2023/01/28 03:53:20;;;;;;;;;;;2.90;99.90;;;;;;5008495;28;20388;-66
2023/01/28 03:55:46;;;;;;;;;;;2.90;99.90;;;;;;5008510;28;19979;-66
2023/01/28 03:58:12;;;;;;;;;;;2.90;99.90;;;;;;5008257;28;19913;-66
2023/01/28 04:00:41;;;;;;;;;;;2.90;99.90;;;;;;5008707;28;19917;-66
2023/01/28 04:03:16;;;;;;;;;;;2.90;99.90;;;;;;5008441;28;19910;-66
2023/01/28 04:06:02;;;;;;;;;;;2.90;99.90;;;;;;5008690;28;19975;-66
2023/01/28 04:08:27;;;;;;;;;;;2.90;99.90;;;;;;5007747;28;20478;-66
2023/01/28 04:10:53;;;;;;;;;;;2.90;99.90;;;;;;5003432;28;19914;-66
2023/01/28 04:13:18;;;;;;;;;;;2.90;99.90;;;;;;4988861;28;20000;-66
2023/01/28 04:15:44;;;;;;;;;;;2.90;99.90;;;;;;4988840;28;19921;-66
2023/01/28 04:18:10;;;;;;;;;;;2.90;99.90;;;;;;4996079;28;19921;-66
2023/01/28 04:20:36;;;;;;;;;;;2.90;99.90;;;;;;5008233;28;19920;-66
2023/01/28 04:23:01;;;;;;;;;;;2.90;99.90;;;;;;5008126;28;19971;-66
2023/01/28 04:25:27;;;;;;;;;;;2.90;99.90;;;;;;5008499;28;19944;-66
2023/01/28 04:27:52;;;;;;;;;;;2.90;99.90;;;;;;5007209;28;20705;-66
2023/01/28 04:30:18;;;;;;;;;;;2.90;99.90;;;;;;5008030;28;19913;-66
2023/01/28 04:32:45;;;;;;;;;;;2.90;99.90;;;;;;5007987;28;19913;-66
2023/01/28 04:35:10;;;;;;;;;;;2.90;99.90;;;;;;5008177;28;19924;-66
2023/01/28 04:37:36;;;;;;;;;;;2.90;99.90;;;;;;5007374;28;19914;-66
2023/01/28 04:40:01;;;;;;;;;;;2.90;99.90;;;;;;5007668;28;19921;-66
2023/01/28 04:42:27;;;;;;;;;;;2.90;99.90;;;;;;5006992;28;19921;-66
2023/01/28 04:44:52;;;;;;;;;;;2.90;99.90;;;;;;5006897;28;19988;-66
2023/01/28 04:47:18;;;;;;;;;;;2.90;99.90;;;;;;5007642;28;19952;-66
2023/01/28 04:49:44;;;;;;;;;;;2.90;99.90;;;;;;5007426;28;19911;-66
2023/01/28 04:52:09;;;;;;;;;;;2.80;99.90;;;;;;5007075;28;19914;-66
2023/01/28 04:54:35;;;;;;;;;;;2.90;99.90;;;;;;4992432;28;19916;-66
2023/01/28 04:57:00;;;;;;;;;;;2.80;99.90;;;;;;5007253;28;19924;-67
2023/01/28 04:59:26;;;;;;;;;;;2.80;99.90;;;;;;5006388;28;19917;-67
2023/01/28 05:01:51;;;;;;;;;;;2.80;99.90;;;;;;5007374;28;19914;-68
2023/01/28 05:04:17;;;;;;;;;;;2.80;99.90;;;;;;5007368;28;19913;-66
2023/01/28 05:06:42;;;;;;;;;;;2.80;99.90;;;;;;5006777;28;19957;-67
2023/01/28 05:09:08;;;;;;;;;;;2.80;99.90;;;;;;5006867;28;19920;-69
2023/01/28 05:11:33;;;;;;;;;;;2.80;99.90;;;;;;5006662;28;20313;-66
2023/01/28 05:13:59;;;;;;;;;;;2.80;99.90;;;;;;5006602;28;19920;-66
2023/01/28 05:16:24;;;;;;;;;;;2.80;99.90;;;;;;5006050;28;20635;-66
2023/01/28 05:18:50;;;;;;;;;;;2.80;99.90;;;;;;5007033;28;20620;-66
2023/01/28 05:21:16;;;;;;;;;;;2.80;99.90;;;;;;5007233;28;19909;-66
2023/01/28 05:23:42;;;;;;;;;;;2.80;99.90;;;;;;5007260;28;20433;-66
2023/01/28 05:26:07;;;;;;;;;;;2.80;99.90;;;;;;5007568;28;19964;-66
2023/01/28 05:28:33;;;;;;;;;;;2.80;99.90;;;;;;5007181;28;19913;-66
2023/01/28 05:31:05;;;;;;;;;;;2.80;99.90;;;;;;5007226;28;19939;-66
2023/01/28 05:33:31;;;;;;;;;;;2.80;99.90;;;;;;5007312;28;19945;-66
2023/01/28 05:35:56;;;;;;;;;;;2.80;99.90;;;;;;5007144;28;19999;-67
2023/01/28 05:38:22;;;;;;;;;;;2.80;99.80;;;;;;5006662;28;19923;-66
2023/01/28 05:40:47;;;;;;;;;;;2.80;99.80;;;;;;5021542;28;19917;-66
2023/01/28 05:43:13;;;;;;;;;;;2.80;99.80;;;;;;5006282;28;20012;-66
2023/01/28 05:45:38;;;;;;;;;;;2.80;99.80;;;;;;5007304;28;20383;-66
2023/01/28 05:48:04;;;;;;;;;;;2.80;99.80;;;;;;5007210;28;20394;-66
2023/01/28 05:50:29;;;;;;;;;;;2.80;99.80;;;;;;5006318;28;20007;-66
2023/01/28 05:52:55;;;;;;;;;;;2.70;99.80;;;;;;4986150;28;20272;-66
2023/01/28 05:55:20;;;;;;;;;;;2.70;99.80;;;;;;4997435;28;20367;-67
2023/01/28 05:57:46;;;;;;;;;;;2.80;99.80;;;;;;5006974;28;19917;-66
2023/01/28 06:00:13;;;;;;;;;;;2.80;99.80;;;;;;5006760;28;20012;-66
2023/01/28 06:02:39;;;;;;;;;;;2.70;99.80;;;;;;5006760;28;20622;-66
2023/01/28 06:05:04;;;;;;;;;;;2.70;99.80;;;;;;5006580;28;20032;-66
2023/01/28 06:07:30;;;;;;;;;;;2.70;99.80;;;;;;5006848;28;20377;-66
2023/01/28 06:09:55;;;;;;;;;;;2.70;99.80;;;;;;5007424;28;19914;-66
2023/01/28 06:12:22;;;;;;;;;;;2.70;99.80;;;;;;5010657;28;19914;-66
2023/01/28 06:14:47;;;;;;;;;;;2.70;99.70;;;;;;5010526;28;20291;-66
2023/01/28 06:17:12;;;;;;;;;;;2.70;99.70;;;;;;5009531;28;19922;-66
2023/01/28 06:19:38;;;;;;;;;;;2.70;99.70;;;;;;5010046;28;19928;-66
2023/01/28 06:22:03;;;;;;;;;;;2.70;99.70;;;;;;5010577;28;19913;-66
2023/01/28 06:24:29;;;;;;;;;;;2.70;99.70;;;;;;5010637;28;19996;-66
2023/01/28 06:26:54;;;;;;;;;;;2.70;99.70;;;;;;5010125;28;20023;-66
2023/01/28 06:29:20;;;;;;;;;;;2.70;99.70;;;;;;5010278;28;19913;-66
2023/01/28 06:31:45;;;;;;;;;;;2.70;99.70;;;;;;5010098;28;20032;-66
2023/01/28 06:34:12;;;;;;;;;;;2.70;99.70;;;;;;5010131;28;20359;-66
2023/01/28 06:36:37;;;;;;;;;;;2.70;99.70;;;;;;5009328;28;19913;-66
2023/01/28 06:39:03;;;;;;;;;;;2.70;99.70;;;;;;5010021;28;19944;-67
2023/01/28 06:41:28;;;;;;;;;;;2.70;99.70;;;;;;5009409;28;20003;-67
2023/01/28 06:43:54;;;;;;;;;;;2.70;99.70;;;;;;5009443;28;20000;-66
2023/01/28 06:46:19;;;;;;;;;;;2.70;99.70;;;;;;4992472;28;19937;-66
2023/01/28 06:48:45;;;;;;;;;;;2.70;99.70;;;;;;5009656;28;19910;-66
2023/01/28 06:51:10;;;;;;;;;;;2.70;99.70;;;;;;5010035;28;19972;-66
2023/01/28 06:53:36;;;;;;;;;;;2.60;99.60;;;;;;5009193;28;19910;-67
2023/01/28 06:56:01;;;;;;;;;;;2.70;99.70;;;;;;5010095;28;19917;-66
2023/01/28 06:58:27;;;;;;;;;;;2.60;99.60;;;;;;5009686;28;19924;-66
2023/01/28 07:00:52;;;;;;;;;;;2.70;99.70;;;;;;5009645;28;19913;-66
2023/01/28 07:03:18;;;;;;;;;;;2.60;99.60;;;;;;5009287;28;20609;-66
2023/01/28 07:05:43;;;;;;;;;;;2.60;99.60;;;;;;5001516;28;19922;-66
2023/01/28 07:08:09;;;;;;;;;;;2.60;99.60;;;;;;5014941;28;20290;-66
2023/01/28 07:10:34;;;;;;;;;;;2.60;99.60;;;;;;4998104;28;19972;-66
2023/01/28 07:13:00;;;;;;;;;;;2.60;99.60;;;;;;4979271;28;19957;-66
2023/01/28 07:15:25;;;;;;;;;;;2.60;99.60;;;;;;5001987;28;19917;-66
2023/01/28 07:17:51;;;;;;;;;;;2.60;99.60;;;;;;5003013;28;19929;-66
2023/01/28 07:20:17;;;;;;;;;;;2.60;99.60;;;;;;5004071;28;19917;-66
2023/01/28 07:22:43;;;;;;;;;;;2.60;99.60;;;;;;5001720;28;19996;-66
2023/01/28 07:25:09;;;;;;;;;;;2.60;99.60;;;;;;5009602;28;20063;-66
2023/01/28 07:27:34;;;;;;;;;;;2.60;99.60;;;;;;5009276;28;19914;-66
2023/01/28 07:30:00;;;;;;;;;;;2.60;99.60;;;;;;5008205;28;19920;-66
2023/01/28 07:32:26;;;;;;;;;;;2.60;99.60;;;;;;4986925;28;19910;-66
2023/01/28 07:34:52;;;;;;;;;;;2.60;99.60;;;;;;5001071;28;19922;-66
2023/01/28 07:37:17;;;;;;;;;;;2.60;99.60;;;;;;4998262;28;19953;-66
2023/01/28 07:39:43;;;;;;;;;;;2.60;99.60;;;;;;5002108;28;19917;-67
2023/01/28 07:42:08;;;;;;;;;;;2.60;99.60;;;;;;4997517;28;19988;-67
2023/01/28 07:44:35;;;;;;;;;;;2.60;99.60;;;;;;4994592;28;19920;-66
2023/01/28 07:47:01;;;;;;;;;;;2.60;99.60;;;;;;4987715;28;19980;-67
2023/01/28 07:49:26;;;;;;;;;;;2.60;99.60;;;;;;5035782;28;20393;-67
2023/01/28 07:51:52;;;;;;;;;;;2.60;99.50;;;;;;5008091;28;19976;-67
2023/01/28 07:54:17;;;;;;;;;;;2.60;99.60;;;;;;5008090;28;19952;-66
2023/01/28 07:56:43;;;;;;;;;;;2.60;99.50;;;;;;5006170;28;19917;-66
2023/01/28 07:59:08;;;;;;;;;;;2.60;99.60;;;;;;5007913;28;20460;-66
2023/01/28 08:01:34;;;;;;;;;;;2.60;99.50;;;;;;5008327;28;19913;-66
2023/01/28 08:03:59;;;;;;;;;;;2.60;99.50;;;;;;5008530;28;19914;-66
2023/01/28 08:06:27;;;;;;;;;;;2.60;99.50;;;;;;5008598;28;19916;-66
2023/01/28 08:08:52;;;;;;;;;;;2.60;99.50;;;;;;5008299;28;19913;-66
2023/01/28 08:11:18;;;;;;;;;;;2.60;99.40;;;;;;5007708;28;20084;-66
2023/01/28 08:13:43;;;;;;;;;;;2.60;99.40;;;;;;5008201;28;19914;-66
2023/01/28 08:16:09;;;;;;;;;;;2.60;99.40;;;;;;5006905;28;19963;-66
2023/01/28 08:18:34;;;;;;;;;;;2.60;99.40;;;;;;5007121;28;19917;-67
2023/01/28 08:20:59;;;;;;;;;;;2.60;99.40;;;;;;5007979;28;19914;-66
2023/01/28 08:23:26;;;;;;;;;;;2.60;99.40;;;;;;5007996;28;20408;-66
2023/01/28 08:25:52;;;;;;;;;;;2.60;99.30;;;;;;5008340;28;19920;-66
2023/01/28 08:28:18;;;;;;;;;;;2.60;99.30;;;;;;5008125;28;19921;-66
2023/01/28 08:30:44;;;;;;;;;;;2.60;99.30;;;;;;5008131;28;19913;-66
2023/01/28 08:33:10;;;;;;;;;;;2.60;99.20;;;;;;5007921;28;19917;-66
2023/01/28 08:35:35;;;;;;;;;;;2.60;99.20;;;;;;5008461;28;19910;-66
2023/01/28 08:38:02;;;;;;;;;;;2.60;99.20;;;;;;5007887;28;20467;-66
2023/01/28 08:40:28;;;;;;;;;;;2.60;99.20;;;;;;5007819;28;19952;-66
2023/01/28 08:42:53;;;;;;;;;;;2.60;99.10;;;;;;5007347;28;19949;-66
2023/01/28 08:45:21;;;;;;;;;;;2.60;99.10;;;;;;5008046;28;19917;-66
2023/01/28 08:48:07;;;;;;;;;;;2.60;99.10;;;;;;5008020;28;19917;-66
2023/01/28 08:50:33;;;;;;;;;;;2.60;99.00;;;;;;5007124;28;19918;-66
2023/01/28 08:53:00;;;;;;;;;;;2.60;99.00;;;;;;5007653;28;19913;-67
2023/01/28 08:55:27;;;;;;;;;;;2.70;99.00;;;;;;5002250;28;20008;-66
2023/01/28 08:57:53;;;;;;;;;;;2.70;99.00;;;;;;4994684;28;19927;-66
2023/01/28 09:00:18;;;;;;;;;;;2.70;99.00;;;;;;4996651;28;19917;-66
2023/01/28 09:02:44;;;;;;;;;;;2.70;98.90;;;;;;5000697;28;19913;-66
2023/01/28 09:05:10;;;;;;;;;;;2.70;99.00;;;;;;5007806;28;19913;-66
2023/01/28 09:07:36;;;;;;;;;;;2.70;98.90;;;;;;5007120;28;19909;-66
2023/01/28 09:10:02;;;;;;;;;;;2.70;98.90;;;;;;5006902;28;20397;-66
2023/01/28 09:12:28;;;;;;;;;;;2.70;98.80;;;;;;5006177;28;19910;-66
2023/01/28 09:14:53;;;;;;;;;;;2.70;98.80;;;;;;5006436;28;19920;-66
2023/01/28 09:17:19;;;;;;;;;;;2.70;98.80;;;;;;5005702;28;20755;-66
2023/01/28 09:19:45;;;;;;;;;;;2.70;98.80;;;;;;5005524;28;20637;-66
2023/01/28 09:22:10;;;;;;;;;;;2.70;98.90;;;;;;5004970;28;19917;-66
2023/01/28 09:24:36;;;;;;;;;;;2.70;98.90;;;;;;5007171;28;19909;-67
2023/01/28 09:27:01;;;;;;;;;;;2.70;98.90;;;;;;5005642;28;20321;-66
2023/01/28 09:29:27;;;;;;;;;;;2.70;98.90;;;;;;5006815;28;19917;-66
2023/01/28 09:31:52;;;;;;;;;;;2.70;98.90;;;;;;5007123;28;19928;-66
2023/01/28 09:34:18;;;;;;;;;;;2.70;98.80;;;;;;5006956;28;19918;-66
2023/01/28 09:36:43;;;;;;;;;;;2.80;98.90;;;;;;5005700;28;20397;-66
2023/01/28 09:39:09;;;;;;;;;;;2.80;98.90;;;;;;5006958;28;19917;-66
2023/01/28 09:41:54;;;;;;;;;;;2.80;98.90;;;;;;4999888;28;19961;-66
2023/01/28 09:44:38;;;;;;;;;;;2.80;98.80;;;;;;4988195;28;19936;-66
2023/01/28 09:47:07;;;;;;;;;;;2.80;98.80;;;;;;4994051;28;19913;-66
2023/01/28 09:49:38;;;;;;;;;;;2.80;98.70;;;;;;5011968;28;20460;-66
2023/01/28 09:52:04;;;;;;;;;;;2.80;98.70;;;;;;5012968;28;19913;-66
2023/01/28 09:54:29;;;;;;;;;;;2.80;98.60;;;;;;5012955;28;20385;-66
2023/01/28 09:57:06;;;;;;;;;;;2.80;98.50;;;;;;5013312;28;19913;-66
2023/01/28 09:59:35;;;;;;;;;;;2.80;98.60;;;;;;4995483;28;19914;-66
2023/01/28 10:02:20;;;;;;;;;;;2.80;98.50;;;;;;5013534;28;19952;-66
2023/01/28 10:04:48;;;;;;;;;;;2.90;98.50;;;;;;4993689;28;19917;-66
2023/01/28 10:07:23;;;;;;;;;;;2.80;98.50;;;;;;4995059;28;19925;-66
2023/01/28 10:10:01;;;;;;;;;;;2.80;98.50;;;;;;5010442;28;19918;-66
2023/01/28 10:12:36;;;;;;;;;;;2.90;98.50;;;;;;4993473;28;19949;-66
2023/01/28 10:15:01;;;;;;;;;;;2.90;98.50;;;;;;4993811;28;20005;-66
2023/01/28 10:17:29;;;;;;;;;;;2.90;98.50;;;;;;4994636;28;20004;-66
2023/01/28 10:20:31;;;;;;;;;;;2.90;98.50;;;;;;5013026;28;19921;-66
2023/01/28 10:23:05;;;;;;;;;;;2.90;98.50;;;;;;4991482;28;19910;-66
2023/01/28 10:25:31;;;;;;;;;;;2.90;98.40;;;;;;5013586;28;19980;-66
2023/01/28 10:27:59;;;;;;;;;;;3.00;98.40;;;;;;5012876;28;19913;-66
2023/01/28 10:30:26;;;;;;;;;;;3.00;98.30;;;;;;5012860;28;19917;-66
2023/01/28 10:32:55;;;;;;;;;;;3.00;98.40;;;;;;5013355;28;19910;-66
2023/01/28 10:35:21;;;;;;;;;;;3.00;98.30;;;;;;5011954;28;19923;-66
2023/01/28 10:37:46;;;;;;;;;;;3.00;98.40;;;;;;5013035;28;19913;-66
2023/01/28 10:40:15;;;;;;;;;;;3.00;98.10;;;;;;5013156;28;20373;-66
2023/01/28 10:42:41;;;;;;;;;;;3.10;98.20;;;;;;5011969;28;19913;-66
2023/01/28 10:45:13;;;;;;;;;;;3.10;98.10;;;;;;5012931;28;19916;-66
2023/01/28 10:47:42;;;;;;;;;;;3.10;98.20;;;;;;5013004;28;20027;-66
2023/01/28 10:50:14;;;;;;;;;;;3.10;98.10;;;;;;5012784;28;20313;-66
2023/01/28 10:52:51;;;;;;;;;;;3.10;98.10;;;;;;5013107;28;19919;-66
2023/01/28 10:55:16;;;;;;;;;;;3.20;98.10;;;;;;5012879;28;19914;-66
2023/01/28 10:57:42;;;;;;;;;;;3.10;98.00;;;;;;5002644;28;20051;-67
2023/01/28 11:00:11;;;;;;;;;;;3.20;98.00;;;;;;5002204;28;20004;-66
2023/01/28 11:02:37;;;;;;;;;;;3.20;98.00;;;;;;5000273;28;19910;-66
2023/01/28 11:05:16;;;;;;;;;;;3.20;98.00;;;;;;5009558;28;19920;-66
2023/01/28 11:07:42;;;;;;;;;;;3.20;98.00;;;;;;5008892;28;20564;-66
2023/01/28 11:10:26;;;;;;;;;;;3.20;97.90;;;;;;5008672;28;19909;-66
2023/01/28 11:12:58;;;;;;;;;;;3.20;97.90;;;;;;5008824;28;19913;-66
2023/01/28 11:15:24;;;;;;;;;;;3.30;98.00;;;;;;5008348;28;19925;-66
2023/01/28 11:17:52;;;;;;;;;;;3.30;97.90;;;;;;5009178;28;19975;-66
2023/01/28 11:20:22;;;;;;;;;;;3.30;98.00;;;;;;5009356;28;19913;-67
2023/01/28 11:22:48;;;;;;;;;;;3.30;98.00;;;;;;5008675;28;19918;-66
2023/01/28 11:25:23;;;;;;;;;;;3.30;98.00;;;;;;5009189;28;20560;-66
2023/01/28 11:27:50;;;;;;;;;;;3.30;97.90;;;;;;5008140;28;19917;-66
2023/01/28 11:30:42;;;;;;;;;;;3.30;97.90;;;;;;5006668;28;19920;-66
2023/01/28 11:33:21;;;;;;;;;;;3.20;97.90;;;;;;5004184;28;19920;-66
2023/01/28 11:35:54;;;;;;;;;;;3.30;97.90;;;;;;5001960;28;20037;-66
2023/01/28 11:38:21;;;;;;;;;;;3.20;98.00;;;;;;5005108;28;19918;-66
2023/01/28 11:40:53;;;;;;;;;;;3.30;98.00;;;;;;5006836;28;19910;-66
2023/01/28 11:43:20;;;;;;;;;;;3.30;97.90;;;;;;5007479;28;19920;-66
2023/01/28 11:45:55;;;;;;;;;;;3.30;98.00;;;;;;4990467;28;20059;-66
2023/01/28 11:48:36;;;;;;;;;;;3.30;98.00;;;;;;5007554;28;19920;-66
2023/01/28 11:51:10;;;;;;;;;;;3.20;97.90;;;;;;5007775;28;19909;-67
2023/01/28 11:53:53;;;;;;;;;;;3.30;97.70;;;;;;5007040;28;19949;-66
2023/01/28 11:56:22;;;;;;;;;;;3.20;97.80;;;;;;5008389;28;19979;-67
2023/01/28 11:59:07;;;;;;;;;;;3.30;97.80;;;;;;5007780;28;20367;-66
2023/01/28 12:01:32;;;;;;;;;;;3.30;97.80;;;;;;5007865;28;19910;-66
2023/01/28 12:04:10;;;;;;;;;;;3.30;97.70;;;;;;5007026;28;20469;-66
2023/01/28 12:06:47;;;;;;;;;;;3.30;97.70;;;;;;5004059;28;19921;-66
2023/01/28 12:09:12;;;;;;;;;;;3.30;97.60;;;;;;5003517;28;20647;-66
2023/01/28 12:14:53;;;;;;;;;;;3.30;97.70;;;;;;5003933;28;20393;-66
2023/01/28 12:17:25;;;;;;;;;;;3.30;97.60;;;;;;5007216;28;19921;-66
2023/01/28 12:20:01;;;;;;;;;;;3.30;97.60;;;;;;5006324;28;19946;-66
2023/01/28 12:22:29;;;;;;;;;;;3.30;97.50;;;;;;4990333;28;19960;-66
2023/01/28 12:24:55;;;;;;;;;;;3.30;97.50;;;;;;5006979;28;19913;-66
2023/01/28 12:27:20;;;;;;;;;;;3.30;97.60;;;;;;5007004;28;19939;-66
2023/01/28 12:29:51;;;;;;;;;;;3.40;97.40;;;;;;5007680;28;19945;-66
2023/01/28 12:32:20;;;;;;;;;;;3.40;97.50;;;;;;5007958;28;19913;-66
2023/01/28 12:34:54;;;;;;;;;;;3.40;97.50;;;;;;4987787;28;19921;-66
2023/01/28 12:37:26;;;;;;;;;;;3.40;97.50;;;;;;4988098;28;19921;-66
2023/01/28 12:39:51;;;;;;;;;;;3.40;97.30;;;;;;4988055;28;19918;-67
2023/01/28 12:42:33;;;;;;;;;;;3.40;97.30;;;;;;4995969;28;20263;-66
2023/01/28 12:45:03;;;;;;;;;;;3.40;97.20;;;;;;5007837;28;19914;-67
2023/01/28 12:47:34;;;;;;;;;;;3.40;97.20;;;;;;5007378;28;20426;-66
2023/01/28 12:50:09;;;;;;;;;;;3.50;97.20;;;;;;5007593;28;19914;-66
2023/01/28 12:52:38;;;;;;;;;;;3.50;97.30;;;;;;4997386;28;20421;-66
2023/01/28 12:55:12;;;;;;;;;;;3.50;97.30;;;;;;5000149;28;19917;-67
2023/01/28 12:57:37;;;;;;;;;;;3.50;97.10;;;;;;5007417;28;19983;-66
2023/01/28 13:00:22;;;;;;;;;;;3.50;97.20;;;;;;5007093;28;19926;-66
2023/01/28 13:03:06;;;;;;;;;;;3.50;97.20;;;;;;4998093;28;20669;-66
2023/01/28 13:05:33;;;;;;;;;;;3.50;97.30;;;;;;5007355;28;19913;-66
2023/01/28 13:08:04;;;;;;;;;;;3.50;97.30;;;;;;5007184;28;19924;-66
2023/01/28 13:10:39;;;;;;;;;;;3.50;97.30;;;;;;5007349;28;19913;-66
2023/01/28 13:13:05;;;;;;;;;;;3.50;97.20;;;;;;5005772;28;19920;-66
2023/01/28 13:15:31;;;;;;;;;;;3.60;97.30;;;;;;5007448;28;19918;-66
2023/01/28 13:17:58;;;;;;;;;;;3.60;97.30;;;;;;5007011;28;19956;-66
2023/01/28 13:20:37;;;;;;;;;;;3.60;97.30;;;;;;5005817;28;20000;-66
2023/01/28 13:23:05;;;;;;;;;;;3.60;97.30;;;;;;5004443;28;20012;-66
2023/01/28 13:25:33;;;;;;;;;;;3.60;97.40;;;;;;5004806;28;19959;-66
2023/01/28 13:27:59;;;;;;;;;;;3.60;97.40;;;;;;5006915;28;19960;-66
2023/01/28 13:30:29;;;;;;;;;;;3.60;97.40;;;;;;5006646;28;20402;-66
2023/01/28 13:32:57;;;;;;;;;;;3.60;97.30;;;;;;5006870;28;19913;-66
2023/01/28 13:35:29;;;;;;;;;;;3.60;97.30;;;;;;5006896;28;19961;-66
2023/01/28 13:37:56;;;;;;;;;;;3.60;97.30;;;;;;5006723;28;19992;-66
2023/01/28 13:40:25;;;;;;;;;;;3.60;97.20;;;;;;5006561;28;19976;-66
2023/01/28 13:42:59;;;;;;;;;;;3.60;97.30;;;;;;5001384;28;19913;-66
2023/01/28 13:45:24;;;;;;;;;;;3.60;97.30;;;;;;5006789;28;19917;-66
2023/01/28 13:48:13;;;;;;;;;;;3.60;97.20;;;;;;5006815;28;19987;-66
2023/01/28 13:50:40;;;;;;;;;;;3.50;97.20;;;;;;4987195;28;19937;-67
2023/01/28 13:53:16;;;;;;;;;;;3.60;97.20;;;;;;5006533;28;19920;-66
2023/01/28 13:55:43;;;;;;;;;;;3.60;97.30;;;;;;5006852;28;20417;-66
2023/01/28 13:58:27;;;;;;;;;;;3.50;97.20;;;;;;4988472;28;20330;-66
2023/01/28 14:00:59;;;;;;;;;;;3.50;97.30;;;;;;5005364;28;19963;-66
2023/01/28 14:03:36;;;;;;;;;;;3.50;97.40;;;;;;5006116;28;19914;-66
2023/01/28 14:06:09;;;;;;;;;;;3.50;97.50;;;;;;5006833;28;20359;-66
2023/01/28 14:08:49;;;;;;;;;;;3.50;97.50;;;;;;5006441;28;20646;-66
2023/01/28 14:11:15;;;;;;;;;;;3.50;97.30;;;;;;5006227;28;19960;-66
2023/01/28 14:13:59;;;;;;;;;;;3.50;97.20;;;;;;5006838;28;19917;-66
2023/01/28 14:16:24;;;;;;;;;;;3.50;97.20;;;;;;5006850;28;19964;-66
2023/01/28 14:18:50;;;;;;;;;;;3.40;97.10;;;;;;5005211;28;20410;-66
2023/01/28 14:21:18;;;;;;;;;;;3.40;97.40;;;;;;5005877;28;19917;-66
2023/01/28 14:23:47;;;;;;;;;;;3.40;97.40;;;;;;5006269;28;19920;-66
2023/01/28 14:26:31;;;;;;;;;;;3.40;97.20;;;;;;5006732;28;20374;-66
2023/01/28 14:29:32;;;;;;;;;;;3.40;97.30;;;;;;5005480;28;20425;-66
2023/01/28 14:32:03;;;;;;;;;;;3.40;97.40;;;;;;4926877;29;20446;-67
2023/01/28 14:34:29;;;;;;;;;;;3.30;97.40;;;;;;4994791;28;19920;-66
2023/01/28 14:36:56;;;;;;;;;;;3.30;97.60;;;;;;5009287;28;19922;-66
2023/01/28 14:39:24;;;;;;;;;;;3.30;97.40;;;;;;5008917;28;19917;-66
2023/01/28 14:41:51;;;;;;;;;;;3.30;97.50;;;;;;5004580;28;19920;-66
2023/01/28 14:44:37;;;;;;;;;;;3.30;97.40;;;;;;5008865;28;19917;-66
2023/01/28 14:47:08;;;;;;;;;;;3.30;97.50;;;;;;5009134;28;19964;-66
2023/01/28 14:49:39;;;;;;;;;;;3.30;97.50;;;;;;5009083;28;19913;-66
2023/01/28 14:52:07;;;;;;;;;;;3.30;97.60;;;;;;5009030;28;19920;-66
2023/01/28 14:54:41;;;;;;;;;;;3.20;97.50;;;;;;5005279;28;20341;-66
2023/01/28 14:57:14;;;;;;;;;;;3.20;97.50;;;;;;5003077;28;19945;-66
2023/01/28 14:59:44;;;;;;;;;;;3.20;97.50;;;;;;4988801;28;19957;-66
2023/01/28 15:02:20;;;;;;;;;;;3.20;97.60;;;;;;4996784;28;19949;-66
2023/01/28 15:04:45;;;;;;;;;;;3.20;97.60;;;;;;4988333;28;20520;-66
2023/01/28 15:07:31;;;;;;;;;;;3.20;97.60;;;;;;4988637;28;19920;-66
2023/01/28 15:10:00;;;;;;;;;;;3.20;97.60;;;;;;4988328;28;19914;-66
2023/01/28 15:12:27;;;;;;;;;;;3.10;97.70;;;;;;4989280;28;19984;-66
2023/01/28 15:14:52;;;;;;;;;;;3.10;97.70;;;;;;4988981;28;19910;-66
2023/01/28 15:17:24;;;;;;;;;;;3.10;97.80;;;;;;4988267;28;20674;-66